sensor_id;sensor_type;location;lat;lon;timestamp;temperature;humidity
20284;DHT22;10301;50.832;4.080;2023-09-08T00:00:11;21.60;22.40
20284;DHT22;10301;50.832;4.080;2023-09-08T00:02:37;21.60;23.30
20284;DHT22;10301;50.832;4.080;2023-09-08T00:05:03;21.80;7.10
20284;DHT22;10301;50.832;4.080;2023-09-08T00:07:29;21.70;11.50
20284;DHT22;10301;50.832;4.080;2023-09-08T00:09:54;21.70;10.80
20284;DHT22;10301;50.832;4.080;2023-09-08T00:12:20;21.60;14.60
20284;DHT22;10301;50.832;4.080;2023-09-08T00:14:46;21.50;18.90
20284;DHT22;10301;50.832;4.080;2023-09-08T00:17:12;21.50;20.40
20284;DHT22;10301;50.832;4.080;2023-09-08T00:19:37;21.60;19.60
20284;DHT22;10301;50.832;4.080;2023-09-08T00:22:04;21.70;13.20
20284;DHT22;10301;50.832;4.080;2023-09-08T00:24:31;21.60;12.60
20284;DHT22;10301;50.832;4.080;2023-09-08T00:26:57;21.80;10.90
20284;DHT22;10301;50.832;4.080;2023-09-08T00:29:22;21.80;1.00
20284;DHT22;10301;50.832;4.080;2023-09-08T00:31:48;21.60;2.80
20284;DHT22;10301;50.832;4.080;2023-09-08T00:34:14;21.50;8.40
20284;DHT22;10301;50.832;4.080;2023-09-08T00:36:39;21.60;17.20
20284;DHT22;10301;50.832;4.080;2023-09-08T00:39:05;21.50;14.90
20284;DHT22;10301;50.832;4.080;2023-09-08T00:41:30;21.50;18.80
20284;DHT22;10301;50.832;4.080;2023-09-08T00:43:56;21.50;17.70
20284;DHT22;10301;50.832;4.080;2023-09-08T00:46:22;21.50;19.40
20284;DHT22;10301;50.832;4.080;2023-09-08T00:48:48;21.60;17.00
20284;DHT22;10301;50.832;4.080;2023-09-08T00:51:13;21.70;13.60
20284;DHT22;10301;50.832;4.080;2023-09-08T00:53:40;21.80;3.80
20284;DHT22;10301;50.832;4.080;2023-09-08T00:56:07;21.80;3.40
20284;DHT22;10301;50.832;4.080;2023-09-08T00:58:34;22.00;1.00
20284;DHT22;10301;50.832;4.080;2023-09-08T01:01:00;21.80;1.00
20284;DHT22;10301;50.832;4.080;2023-09-08T01:03:25;21.70;1.00
20284;DHT22;10301;50.832;4.080;2023-09-08T01:05:51;21.60;1.00
20284;DHT22;10301;50.832;4.080;2023-09-08T01:08:18;21.50;4.30
20284;DHT22;10301;50.832;4.080;2023-09-08T01:10:44;21.50;3.50
20284;DHT22;10301;50.832;4.080;2023-09-08T01:13:10;21.50;10.00
20284;DHT22;10301;50.832;4.080;2023-09-08T01:15:36;21.70;1.00
20284;DHT22;10301;50.832;4.080;2023-09-08T01:18:01;21.80;1.00
20284;DHT22;10301;50.832;4.080;2023-09-08T01:20:31;21.60;1.00
20284;DHT22;10301;50.832;4.080;2023-09-08T01:23:22;21.50;1.00
20284;DHT22;10301;50.832;4.080;2023-09-08T01:26:02;21.10;7.40
20284;DHT22;10301;50.832;4.080;2023-09-08T01:28:30;20.90;19.70
20284;DHT22;10301;50.832;4.080;2023-09-08T01:30:57;20.90;28.00
20284;DHT22;10301;50.832;4.080;2023-09-08T01:33:23;20.90;27.40
20284;DHT22;10301;50.832;4.080;2023-09-08T01:35:49;21.00;27.20
20284;DHT22;10301;50.832;4.080;2023-09-08T01:38:16;20.90;25.60
20284;DHT22;10301;50.832;4.080;2023-09-08T01:40:42;20.70;35.80
20284;DHT22;10301;50.832;4.080;2023-09-08T01:43:07;20.60;48.30
20284;DHT22;10301;50.832;4.080;2023-09-08T01:45:33;20.70;41.80
20284;DHT22;10301;50.832;4.080;2023-09-08T01:47:59;20.80;34.90
20284;DHT22;10301;50.832;4.080;2023-09-08T01:50:24;20.80;30.30
20284;DHT22;10301;50.832;4.080;2023-09-08T01:52:50;20.70;32.90
20284;DHT22;10301;50.832;4.080;2023-09-08T01:55:16;20.60;39.20
20284;DHT22;10301;50.832;4.080;2023-09-08T01:57:43;20.60;46.30
20284;DHT22;10301;50.832;4.080;2023-09-08T02:00:10;20.50;50.60
20284;DHT22;10301;50.832;4.080;2023-09-08T02:02:36;20.80;41.10
20284;DHT22;10301;50.832;4.080;2023-09-08T02:05:01;20.90;28.80
20284;DHT22;10301;50.832;4.080;2023-09-08T02:07:27;20.90;25.80
20284;DHT22;10301;50.832;4.080;2023-09-08T02:09:53;21.00;22.90
20284;DHT22;10301;50.832;4.080;2023-09-08T02:12:18;21.00;16.90
20284;DHT22;10301;50.832;4.080;2023-09-08T02:14:44;20.90;13.10
20284;DHT22;10301;50.832;4.080;2023-09-08T02:17:10;20.60;24.30
20284;DHT22;10301;50.832;4.080;2023-09-08T02:19:35;20.50;34.40
20284;DHT22;10301;50.832;4.080;2023-09-08T02:22:01;20.30;52.90
20284;DHT22;10301;50.832;4.080;2023-09-08T02:24:27;20.20;54.60
20284;DHT22;10301;50.832;4.080;2023-09-08T02:26:53;20.10;62.40
20284;DHT22;10301;50.832;4.080;2023-09-08T02:29:18;20.10;68.10
20284;DHT22;10301;50.832;4.080;2023-09-08T02:31:44;20.10;65.00
20284;DHT22;10301;50.832;4.080;2023-09-08T02:34:10;20.20;68.30
20284;DHT22;10301;50.832;4.080;2023-09-08T02:36:38;20.20;69.80
20284;DHT22;10301;50.832;4.080;2023-09-08T02:39:04;20.30;63.20
20284;DHT22;10301;50.832;4.080;2023-09-08T02:41:30;20.40;62.20
20284;DHT22;10301;50.832;4.080;2023-09-08T02:43:56;20.40;66.70
20284;DHT22;10301;50.832;4.080;2023-09-08T02:46:21;20.40;66.50
20284;DHT22;10301;50.832;4.080;2023-09-08T02:48:47;20.30;70.10
20284;DHT22;10301;50.832;4.080;2023-09-08T02:51:13;20.30;78.20
20284;DHT22;10301;50.832;4.080;2023-09-08T02:53:39;20.20;73.70
20284;DHT22;10301;50.832;4.080;2023-09-08T02:56:04;20.20;80.50
20284;DHT22;10301;50.832;4.080;2023-09-08T02:58:31;20.20;81.80
20284;DHT22;10301;50.832;4.080;2023-09-08T03:01:13;20.10;81.80
20284;DHT22;10301;50.832;4.080;2023-09-08T03:03:40;20.30;79.70
20284;DHT22;10301;50.832;4.080;2023-09-08T03:06:06;20.30;75.40
20284;DHT22;10301;50.832;4.080;2023-09-08T03:08:32;20.20;77.90
20284;DHT22;10301;50.832;4.080;2023-09-08T03:10:59;20.10;80.50
20284;DHT22;10301;50.832;4.080;2023-09-08T03:13:25;20.20;84.10
20284;DHT22;10301;50.832;4.080;2023-09-08T03:15:52;20.20;77.90
20284;DHT22;10301;50.832;4.080;2023-09-08T03:18:18;20.20;78.60
20284;DHT22;10301;50.832;4.080;2023-09-08T03:20:50;20.30;76.90
20284;DHT22;10301;50.832;4.080;2023-09-08T03:23:17;20.30;75.40
20284;DHT22;10301;50.832;4.080;2023-09-08T03:25:43;20.30;71.40
20284;DHT22;10301;50.832;4.080;2023-09-08T03:28:08;20.30;70.90
20284;DHT22;10301;50.832;4.080;2023-09-08T03:30:34;20.30;69.30
20284;DHT22;10301;50.832;4.080;2023-09-08T03:33:00;20.40;68.30
20284;DHT22;10301;50.832;4.080;2023-09-08T03:35:26;20.30;65.00
20284;DHT22;10301;50.832;4.080;2023-09-08T03:37:51;20.20;68.60
20284;DHT22;10301;50.832;4.080;2023-09-08T03:40:17;20.20;74.40
20284;DHT22;10301;50.832;4.080;2023-09-08T03:42:43;20.40;55.20
20284;DHT22;10301;50.832;4.080;2023-09-08T03:45:08;20.60;35.60
20284;DHT22;10301;50.832;4.080;2023-09-08T03:47:35;20.70;24.10
20284;DHT22;10301;50.832;4.080;2023-09-08T03:50:00;20.60;22.60
20284;DHT22;10301;50.832;4.080;2023-09-08T03:52:26;20.60;20.30
20284;DHT22;10301;50.832;4.080;2023-09-08T03:54:51;20.40;16.90
20284;DHT22;10301;50.832;4.080;2023-09-08T03:57:17;20.10;37.10
20284;DHT22;10301;50.832;4.080;2023-09-08T03:59:43;19.90;56.60
20284;DHT22;10301;50.832;4.080;2023-09-08T04:02:08;19.90;64.70
20284;DHT22;10301;50.832;4.080;2023-09-08T04:04:34;19.80;81.60
20284;DHT22;10301;50.832;4.080;2023-09-08T04:07:00;19.70;90.50
20284;DHT22;10301;50.832;4.080;2023-09-08T04:09:25;19.80;89.20
20284;DHT22;10301;50.832;4.080;2023-09-08T04:11:53;20.00;83.30
20284;DHT22;10301;50.832;4.080;2023-09-08T04:14:20;20.10;71.90
20284;DHT22;10301;50.832;4.080;2023-09-08T04:16:46;20.00;70.60
20284;DHT22;10301;50.832;4.080;2023-09-08T04:19:12;19.90;82.30
20284;DHT22;10301;50.832;4.080;2023-09-08T04:21:37;20.00;77.70
20284;DHT22;10301;50.832;4.080;2023-09-08T04:24:04;20.00;69.30
20284;DHT22;10301;50.832;4.080;2023-09-08T04:26:30;20.10;62.60
20284;DHT22;10301;50.832;4.080;2023-09-08T04:28:56;20.10;58.30
20284;DHT22;10301;50.832;4.080;2023-09-08T04:31:22;20.10;54.20
20284;DHT22;10301;50.832;4.080;2023-09-08T04:33:47;20.20;55.00
20284;DHT22;10301;50.832;4.080;2023-09-08T04:36:13;20.10;49.60
20284;DHT22;10301;50.832;4.080;2023-09-08T04:38:39;20.10;46.80
20284;DHT22;10301;50.832;4.080;2023-09-08T04:41:07;20.10;43.50
20284;DHT22;10301;50.832;4.080;2023-09-08T04:43:32;20.00;51.30
20284;DHT22;10301;50.832;4.080;2023-09-08T04:45:58;20.10;54.10
20284;DHT22;10301;50.832;4.080;2023-09-08T04:48:24;20.10;48.70
20284;DHT22;10301;50.832;4.080;2023-09-08T04:50:49;20.10;47.90
20284;DHT22;10301;50.832;4.080;2023-09-08T04:53:16;20.00;54.30
20284;DHT22;10301;50.832;4.080;2023-09-08T04:55:43;19.90;56.20
20284;DHT22;10301;50.832;4.080;2023-09-08T04:58:08;19.90;60.40
20284;DHT22;10301;50.832;4.080;2023-09-08T05:00:34;19.90;61.00
20284;DHT22;10301;50.832;4.080;2023-09-08T05:03:00;19.90;64.00
20284;DHT22;10301;50.832;4.080;2023-09-08T05:05:25;19.90;65.20
20284;DHT22;10301;50.832;4.080;2023-09-08T05:07:51;19.80;67.40
20284;DHT22;10301;50.832;4.080;2023-09-08T05:10:22;19.90;65.20
20284;DHT22;10301;50.832;4.080;2023-09-08T05:12:47;19.90;61.10
20284;DHT22;10301;50.832;4.080;2023-09-08T05:15:15;19.90;61.70
20284;DHT22;10301;50.832;4.080;2023-09-08T05:17:42;19.90;55.70
20284;DHT22;10301;50.832;4.080;2023-09-08T05:20:08;19.90;56.70
20284;DHT22;10301;50.832;4.080;2023-09-08T05:22:34;19.80;55.50
20284;DHT22;10301;50.832;4.080;2023-09-08T05:25:00;19.80;57.90
20284;DHT22;10301;50.832;4.080;2023-09-08T05:27:25;19.70;61.20
20284;DHT22;10301;50.832;4.080;2023-09-08T05:29:51;19.60;75.10
20284;DHT22;10301;50.832;4.080;2023-09-08T05:32:17;19.70;73.20
20284;DHT22;10301;50.832;4.080;2023-09-08T05:34:42;19.90;62.00
20284;DHT22;10301;50.832;4.080;2023-09-08T05:37:08;20.10;51.90
20284;DHT22;10301;50.832;4.080;2023-09-08T05:39:34;20.00;48.10
20284;DHT22;10301;50.832;4.080;2023-09-08T05:42:00;20.10;47.00
20284;DHT22;10301;50.832;4.080;2023-09-08T05:44:25;20.10;49.70
20284;DHT22;10301;50.832;4.080;2023-09-08T05:46:51;20.10;42.90
20284;DHT22;10301;50.832;4.080;2023-09-08T05:49:16;20.20;32.30
20284;DHT22;10301;50.832;4.080;2023-09-08T05:51:44;20.20;34.00
20284;DHT22;10301;50.832;4.080;2023-09-08T05:54:10;20.20;30.40
20284;DHT22;10301;50.832;4.080;2023-09-08T05:56:37;20.30;29.70
20284;DHT22;10301;50.832;4.080;2023-09-08T05:59:03;20.40;23.30
20284;DHT22;10301;50.832;4.080;2023-09-08T06:01:30;20.40;20.70
20284;DHT22;10301;50.832;4.080;2023-09-08T06:03:56;20.50;13.10
20284;DHT22;10301;50.832;4.080;2023-09-08T06:06:21;20.50;13.10
20284;DHT22;10301;50.832;4.080;2023-09-08T06:08:47;20.50;9.40
20284;DHT22;10301;50.832;4.080;2023-09-08T06:11:13;20.40;16.90
20284;DHT22;10301;50.832;4.080;2023-09-08T06:13:39;20.50;17.10
20284;DHT22;10301;50.832;4.080;2023-09-08T06:16:05;20.50;23.00
20284;DHT22;10301;50.832;4.080;2023-09-08T06:18:30;20.60;21.80
20284;DHT22;10301;50.832;4.080;2023-09-08T06:20:57;20.70;21.90
20284;DHT22;10301;50.832;4.080;2023-09-08T06:23:22;20.90;15.00
20284;DHT22;10301;50.832;4.080;2023-09-08T06:25:49;20.90;11.70
20284;DHT22;10301;50.832;4.080;2023-09-08T06:28:15;20.90;14.80
20284;DHT22;10301;50.832;4.080;2023-09-08T06:30:40;21.00;9.30
20284;DHT22;10301;50.832;4.080;2023-09-08T06:33:09;21.00;17.40
20284;DHT22;10301;50.832;4.080;2023-09-08T06:35:35;21.10;20.70
20284;DHT22;10301;50.832;4.080;2023-09-08T06:38:00;21.10;25.70
20284;DHT22;10301;50.832;4.080;2023-09-08T06:40:28;21.20;21.50
20284;DHT22;10301;50.832;4.080;2023-09-08T06:42:54;21.50;12.80
20284;DHT22;10301;50.832;4.080;2023-09-08T06:45:20;21.60;1.00
20284;DHT22;10301;50.832;4.080;2023-09-08T06:47:46;21.60;6.60
20284;DHT22;10301;50.832;4.080;2023-09-08T06:50:12;21.70;1.90
20284;DHT22;10301;50.832;4.080;2023-09-08T06:52:37;21.70;1.00
20284;DHT22;10301;50.832;4.080;2023-09-08T06:55:03;21.70;1.00
20284;DHT22;10301;50.832;4.080;2023-09-08T06:57:30;21.80;1.00
20284;DHT22;10301;50.832;4.080;2023-09-08T06:59:56;21.80;1.00
20284;DHT22;10301;50.832;4.080;2023-09-08T07:02:21;21.90;1.00
20284;DHT22;10301;50.832;4.080;2023-09-08T07:04:47;22.00;1.00
20284;DHT22;10301;50.832;4.080;2023-09-08T07:07:13;21.90;1.00
20284;DHT22;10301;50.832;4.080;2023-09-08T07:09:39;22.10;1.00
20284;DHT22;10301;50.832;4.080;2023-09-08T07:12:05;22.20;1.00
20284;DHT22;10301;50.832;4.080;2023-09-08T07:14:32;22.30;1.00
20284;DHT22;10301;50.832;4.080;2023-09-08T07:16:57;22.40;1.00
20284;DHT22;10301;50.832;4.080;2023-09-08T07:19:23;22.50;1.00
20284;DHT22;10301;50.832;4.080;2023-09-08T07:21:49;22.60;1.00
20284;DHT22;10301;50.832;4.080;2023-09-08T07:24:14;22.80;1.00
20284;DHT22;10301;50.832;4.080;2023-09-08T07:26:40;22.80;1.00
20284;DHT22;10301;50.832;4.080;2023-09-08T07:29:06;22.90;1.00
20284;DHT22;10301;50.832;4.080;2023-09-08T07:31:31;22.70;1.00
20284;DHT22;10301;50.832;4.080;2023-09-08T07:33:57;22.80;1.00
20284;DHT22;10301;50.832;4.080;2023-09-08T07:36:22;23.00;1.00
20284;DHT22;10301;50.832;4.080;2023-09-08T07:38:48;23.10;1.00
20284;DHT22;10301;50.832;4.080;2023-09-08T07:41:14;23.10;1.00
20284;DHT22;10301;50.832;4.080;2023-09-08T07:43:40;23.20;1.00
20284;DHT22;10301;50.832;4.080;2023-09-08T07:46:09;23.20;1.00
20284;DHT22;10301;50.832;4.080;2023-09-08T07:48:34;23.30;1.00
20284;DHT22;10301;50.832;4.080;2023-09-08T07:51:00;23.50;1.00
20284;DHT22;10301;50.832;4.080;2023-09-08T07:53:27;23.50;1.00
20284;DHT22;10301;50.832;4.080;2023-09-08T07:55:52;23.50;1.00
20284;DHT22;10301;50.832;4.080;2023-09-08T07:58:18;23.50;1.00
20284;DHT22;10301;50.832;4.080;2023-09-08T08:00:44;23.60;1.00
20284;DHT22;10301;50.832;4.080;2023-09-08T08:03:10;23.70;1.00
20284;DHT22;10301;50.832;4.080;2023-09-08T08:05:35;23.80;1.00
20284;DHT22;10301;50.832;4.080;2023-09-08T08:08:02;23.70;1.00
20284;DHT22;10301;50.832;4.080;2023-09-08T08:10:28;23.70;1.00
20284;DHT22;10301;50.832;4.080;2023-09-08T08:12:53;23.70;1.00
20284;DHT22;10301;50.832;4.080;2023-09-08T08:15:20;23.50;1.00
20284;DHT22;10301;50.832;4.080;2023-09-08T08:17:48;23.60;1.00
20284;DHT22;10301;50.832;4.080;2023-09-08T08:20:14;23.70;1.00
20284;DHT22;10301;50.832;4.080;2023-09-08T08:22:46;24.00;1.00
20284;DHT22;10301;50.832;4.080;2023-09-08T08:25:12;24.10;1.00
20284;DHT22;10301;50.832;4.080;2023-09-08T08:27:41;24.10;1.00
20284;DHT22;10301;50.832;4.080;2023-09-08T08:30:07;24.20;1.00
20284;DHT22;10301;50.832;4.080;2023-09-08T08:32:33;24.20;1.00
20284;DHT22;10301;50.832;4.080;2023-09-08T08:34:59;24.00;1.00
20284;DHT22;10301;50.832;4.080;2023-09-08T08:37:25;24.10;1.00
20284;DHT22;10301;50.832;4.080;2023-09-08T08:39:51;24.30;1.00
20284;DHT22;10301;50.832;4.080;2023-09-08T08:42:16;24.50;1.00
20284;DHT22;10301;50.832;4.080;2023-09-08T08:44:42;24.60;1.00
20284;DHT22;10301;50.832;4.080;2023-09-08T08:47:10;24.70;1.00
20284;DHT22;10301;50.832;4.080;2023-09-08T08:49:36;24.80;1.00
20284;DHT22;10301;50.832;4.080;2023-09-08T08:52:04;24.90;1.00
20284;DHT22;10301;50.832;4.080;2023-09-08T08:54:38;24.70;1.00
20284;DHT22;10301;50.832;4.080;2023-09-08T08:57:05;25.00;1.00
20284;DHT22;10301;50.832;4.080;2023-09-08T08:59:31;25.00;1.00
20284;DHT22;10301;50.832;4.080;2023-09-08T09:02:01;25.00;1.00
20284;DHT22;10301;50.832;4.080;2023-09-08T09:04:28;24.80;1.00
20284;DHT22;10301;50.832;4.080;2023-09-08T09:06:54;24.90;1.00
20284;DHT22;10301;50.832;4.080;2023-09-08T09:09:20;25.10;1.00
20284;DHT22;10301;50.832;4.080;2023-09-08T09:11:46;25.10;1.00
20284;DHT22;10301;50.832;4.080;2023-09-08T09:14:12;25.30;1.00
20284;DHT22;10301;50.832;4.080;2023-09-08T09:16:41;25.60;1.00
20284;DHT22;10301;50.832;4.080;2023-09-08T09:19:08;25.60;1.00
20284;DHT22;10301;50.832;4.080;2023-09-08T09:21:47;25.80;1.00
20284;DHT22;10301;50.832;4.080;2023-09-08T09:24:17;25.90;1.00
20284;DHT22;10301;50.832;4.080;2023-09-08T09:26:43;25.90;1.00
20284;DHT22;10301;50.832;4.080;2023-09-08T09:29:15;25.90;1.00
20284;DHT22;10301;50.832;4.080;2023-09-08T09:32:02;26.00;1.00
20284;DHT22;10301;50.832;4.080;2023-09-08T09:34:28;25.90;1.00
20284;DHT22;10301;50.832;4.080;2023-09-08T09:36:53;26.10;1.00
20284;DHT22;10301;50.832;4.080;2023-09-08T09:39:23;26.20;1.00
20284;DHT22;10301;50.832;4.080;2023-09-08T09:41:53;26.20;1.00
20284;DHT22;10301;50.832;4.080;2023-09-08T09:44:19;26.30;1.00
20284;DHT22;10301;50.832;4.080;2023-09-08T09:46:46;26.40;1.00
20284;DHT22;10301;50.832;4.080;2023-09-08T09:49:13;26.10;1.00
20284;DHT22;10301;50.832;4.080;2023-09-08T09:51:47;26.30;1.00
20284;DHT22;10301;50.832;4.080;2023-09-08T09:54:13;26.60;1.00
20284;DHT22;10301;50.832;4.080;2023-09-08T09:56:40;26.80;1.00
20284;DHT22;10301;50.832;4.080;2023-09-08T09:59:08;26.90;1.00
20284;DHT22;10301;50.832;4.080;2023-09-08T10:01:35;26.80;1.00
20284;DHT22;10301;50.832;4.080;2023-09-08T10:04:02;26.80;1.00
20284;DHT22;10301;50.832;4.080;2023-09-08T10:06:31;27.00;1.00
20284;DHT22;10301;50.832;4.080;2023-09-08T10:08:59;27.20;1.00
20284;DHT22;10301;50.832;4.080;2023-09-08T10:11:29;27.40;1.00
20284;DHT22;10301;50.832;4.080;2023-09-08T10:13:58;27.40;1.00
20284;DHT22;10301;50.832;4.080;2023-09-08T10:16:26;27.10;1.00
20284;DHT22;10301;50.832;4.080;2023-09-08T10:18:55;27.10;1.00
20284;DHT22;10301;50.832;4.080;2023-09-08T10:21:23;27.20;1.00
20284;DHT22;10301;50.832;4.080;2023-09-08T10:24:06;27.30;1.00
20284;DHT22;10301;50.832;4.080;2023-09-08T10:26:35;27.40;1.00
20284;DHT22;10301;50.832;4.080;2023-09-08T10:29:03;27.50;99.90
20284;DHT22;10301;50.832;4.080;2023-09-08T10:31:30;27.60;39.70
20284;DHT22;10301;50.832;4.080;2023-09-08T10:33:56;27.80;1.00
20284;DHT22;10301;50.832;4.080;2023-09-08T10:36:24;27.70;99.90
20284;DHT22;10301;50.832;4.080;2023-09-08T10:38:49;27.70;99.90
20284;DHT22;10301;50.832;4.080;2023-09-08T10:43:43;27.90;99.90
20284;DHT22;10301;50.832;4.080;2023-09-08T10:46:10;28.10;1.00
20284;DHT22;10301;50.832;4.080;2023-09-08T10:48:43;28.00;7.90
20284;DHT22;10301;50.832;4.080;2023-09-08T10:51:17;28.10;99.90
20284;DHT22;10301;50.832;4.080;2023-09-08T10:53:42;28.40;99.90
20284;DHT22;10301;50.832;4.080;2023-09-08T10:56:08;28.50;1.00
20284;DHT22;10301;50.832;4.080;2023-09-08T10:58:35;28.40;1.00
20284;DHT22;10301;50.832;4.080;2023-09-08T11:01:04;28.40;1.00
20284;DHT22;10301;50.832;4.080;2023-09-08T11:06:05;28.30;1.00
20284;DHT22;10301;50.832;4.080;2023-09-08T11:08:33;28.40;1.00
20284;DHT22;10301;50.832;4.080;2023-09-08T11:10:59;28.70;99.90
20284;DHT22;10301;50.832;4.080;2023-09-08T11:13:26;28.90;1.00
20284;DHT22;10301;50.832;4.080;2023-09-08T11:15:53;28.90;1.00
20284;DHT22;10301;50.832;4.080;2023-09-08T11:18:29;28.70;1.00
20284;DHT22;10301;50.832;4.080;2023-09-08T11:20:56;28.80;39.70
20284;DHT22;10301;50.832;4.080;2023-09-08T11:23:21;28.80;99.90
20284;DHT22;10301;50.832;4.080;2023-09-08T11:25:49;29.00;1.00
20284;DHT22;10301;50.832;4.080;2023-09-08T11:28:16;29.10;1.00
20284;DHT22;10301;50.832;4.080;2023-09-08T11:30:42;28.90;99.90
20284;DHT22;10301;50.832;4.080;2023-09-08T11:33:15;29.20;1.00
20284;DHT22;10301;50.832;4.080;2023-09-08T11:35:41;29.30;1.00
20284;DHT22;10301;50.832;4.080;2023-09-08T11:38:10;29.30;99.90
20284;DHT22;10301;50.832;4.080;2023-09-08T11:40:36;29.30;85.90
20284;DHT22;10301;50.832;4.080;2023-09-08T11:43:03;29.40;1.00
20284;DHT22;10301;50.832;4.080;2023-09-08T11:45:30;29.40;99.90
20284;DHT22;10301;50.832;4.080;2023-09-08T11:47:56;29.40;1.00
20284;DHT22;10301;50.832;4.080;2023-09-08T11:50:23;29.50;99.90
20284;DHT22;10301;50.832;4.080;2023-09-08T11:52:52;29.20;1.00
20284;DHT22;10301;50.832;4.080;2023-09-08T11:55:20;29.00;1.00
20284;DHT22;10301;50.832;4.080;2023-09-08T11:57:48;29.10;99.90
20284;DHT22;10301;50.832;4.080;2023-09-08T12:00:15;29.30;99.90
20284;DHT22;10301;50.832;4.080;2023-09-08T12:02:44;29.70;1.00
20284;DHT22;10301;50.832;4.080;2023-09-08T12:05:20;29.90;96.50
20284;DHT22;10301;50.832;4.080;2023-09-08T12:07:47;29.80;1.00
20284;DHT22;10301;50.832;4.080;2023-09-08T12:10:13;29.80;6.40
20284;DHT22;10301;50.832;4.080;2023-09-08T12:12:50;29.80;1.00
20284;DHT22;10301;50.832;4.080;2023-09-08T12:15:35;30.00;99.90
20284;DHT22;10301;50.832;4.080;2023-09-08T12:18:06;29.80;99.90
20284;DHT22;10301;50.832;4.080;2023-09-08T12:20:34;30.00;1.00
20284;DHT22;10301;50.832;4.080;2023-09-08T12:23:27;30.10;5.90
20284;DHT22;10301;50.832;4.080;2023-09-08T12:25:52;30.10;1.00
20284;DHT22;10301;50.832;4.080;2023-09-08T12:28:20;30.20;82.10
20284;DHT22;10301;50.832;4.080;2023-09-08T12:30:46;30.10;1.00
20284;DHT22;10301;50.832;4.080;2023-09-08T12:33:12;30.00;1.00
20284;DHT22;10301;50.832;4.080;2023-09-08T12:35:43;30.10;1.00
20284;DHT22;10301;50.832;4.080;2023-09-08T12:38:09;30.20;1.00
20284;DHT22;10301;50.832;4.080;2023-09-08T12:40:36;30.50;1.00
20284;DHT22;10301;50.832;4.080;2023-09-08T12:43:03;30.30;1.00
20284;DHT22;10301;50.832;4.080;2023-09-08T12:45:29;30.40;1.00
20284;DHT22;10301;50.832;4.080;2023-09-08T12:47:59;30.50;1.00
20284;DHT22;10301;50.832;4.080;2023-09-08T12:50:25;30.50;1.00
20284;DHT22;10301;50.832;4.080;2023-09-08T12:52:51;30.60;1.00
20284;DHT22;10301;50.832;4.080;2023-09-08T12:55:17;30.60;1.00
20284;DHT22;10301;50.832;4.080;2023-09-08T12:57:42;30.70;1.00
20284;DHT22;10301;50.832;4.080;2023-09-08T13:00:09;30.80;99.90
20284;DHT22;10301;50.832;4.080;2023-09-08T13:02:34;30.90;1.00
20284;DHT22;10301;50.832;4.080;2023-09-08T13:05:01;30.90;99.90
20284;DHT22;10301;50.832;4.080;2023-09-08T13:07:27;30.80;1.00
20284;DHT22;10301;50.832;4.080;2023-09-08T13:09:52;30.90;1.00
20284;DHT22;10301;50.832;4.080;2023-09-08T13:12:18;31.00;1.00
20284;DHT22;10301;50.832;4.080;2023-09-08T13:14:44;30.80;1.00
20284;DHT22;10301;50.832;4.080;2023-09-08T13:17:10;30.80;1.00
20284;DHT22;10301;50.832;4.080;2023-09-08T13:19:36;30.90;1.00
20284;DHT22;10301;50.832;4.080;2023-09-08T13:22:07;31.00;1.00
20284;DHT22;10301;50.832;4.080;2023-09-08T13:24:33;31.00;1.00
20284;DHT22;10301;50.832;4.080;2023-09-08T13:27:00;31.10;1.00
20284;DHT22;10301;50.832;4.080;2023-09-08T13:29:26;31.10;1.00
20284;DHT22;10301;50.832;4.080;2023-09-08T13:31:54;31.10;1.00
20284;DHT22;10301;50.832;4.080;2023-09-08T13:34:21;31.10;1.00
20284;DHT22;10301;50.832;4.080;2023-09-08T13:36:47;31.10;1.00
20284;DHT22;10301;50.832;4.080;2023-09-08T13:39:13;31.10;1.00
20284;DHT22;10301;50.832;4.080;2023-09-08T13:44:22;31.10;1.00
20284;DHT22;10301;50.832;4.080;2023-09-08T13:46:48;31.00;1.00
20284;DHT22;10301;50.832;4.080;2023-09-08T13:49:14;30.90;37.70
20284;DHT22;10301;50.832;4.080;2023-09-08T13:51:40;31.00;99.90
20284;DHT22;10301;50.832;4.080;2023-09-08T13:54:06;31.10;1.00
20284;DHT22;10301;50.832;4.080;2023-09-08T13:56:32;31.20;1.00
20284;DHT22;10301;50.832;4.080;2023-09-08T13:58:58;31.20;1.00
20284;DHT22;10301;50.832;4.080;2023-09-08T14:01:23;31.10;1.00
20284;DHT22;10301;50.832;4.080;2023-09-08T14:03:50;31.20;99.90
20284;DHT22;10301;50.832;4.080;2023-09-08T14:06:17;31.40;99.90
20284;DHT22;10301;50.832;4.080;2023-09-08T14:08:44;31.20;1.00
20284;DHT22;10301;50.832;4.080;2023-09-08T14:11:10;31.10;1.00
20284;DHT22;10301;50.832;4.080;2023-09-08T14:13:35;31.20;1.00
20284;DHT22;10301;50.832;4.080;2023-09-08T14:16:01;31.40;1.00
20284;DHT22;10301;50.832;4.080;2023-09-08T14:18:26;31.50;1.00
20284;DHT22;10301;50.832;4.080;2023-09-08T14:20:53;31.50;1.00
20284;DHT22;10301;50.832;4.080;2023-09-08T14:23:19;31.50;1.00
20284;DHT22;10301;50.832;4.080;2023-09-08T14:25:44;31.50;1.00
20284;DHT22;10301;50.832;4.080;2023-09-08T14:28:10;31.40;1.00
20284;DHT22;10301;50.832;4.080;2023-09-08T14:30:35;31.30;1.00
20284;DHT22;10301;50.832;4.080;2023-09-08T14:33:01;31.00;99.90
20284;DHT22;10301;50.832;4.080;2023-09-08T14:35:27;31.20;99.90
20284;DHT22;10301;50.832;4.080;2023-09-08T14:37:52;31.20;99.90
20284;DHT22;10301;50.832;4.080;2023-09-08T14:40:18;31.40;1.00
20284;DHT22;10301;50.832;4.080;2023-09-08T14:42:43;31.50;1.00
20284;DHT22;10301;50.832;4.080;2023-09-08T14:45:09;31.60;1.00
20284;DHT22;10301;50.832;4.080;2023-09-08T14:47:35;31.70;1.00
20284;DHT22;10301;50.832;4.080;2023-09-08T14:50:01;31.80;1.00
20284;DHT22;10301;50.832;4.080;2023-09-08T14:52:28;31.70;99.90
20284;DHT22;10301;50.832;4.080;2023-09-08T14:54:54;31.70;99.90
20284;DHT22;10301;50.832;4.080;2023-09-08T14:57:19;31.80;99.90
20284;DHT22;10301;50.832;4.080;2023-09-08T14:59:45;31.90;99.90
20284;DHT22;10301;50.832;4.080;2023-09-08T15:02:11;31.80;34.30
20284;DHT22;10301;50.832;4.080;2023-09-08T15:04:37;31.70;99.90
20284;DHT22;10301;50.832;4.080;2023-09-08T15:07:03;31.90;71.10
20284;DHT22;10301;50.832;4.080;2023-09-08T15:09:29;31.70;99.90
20284;DHT22;10301;50.832;4.080;2023-09-08T15:11:55;31.60;99.90
20284;DHT22;10301;50.832;4.080;2023-09-08T15:14:20;31.50;99.90
20284;DHT22;10301;50.832;4.080;2023-09-08T15:16:46;31.80;99.90
20284;DHT22;10301;50.832;4.080;2023-09-08T15:19:12;31.80;99.90
20284;DHT22;10301;50.832;4.080;2023-09-08T15:21:37;31.80;99.90
20284;DHT22;10301;50.832;4.080;2023-09-08T15:24:04;31.80;99.40
20284;DHT22;10301;50.832;4.080;2023-09-08T15:26:30;31.80;99.90
20284;DHT22;10301;50.832;4.080;2023-09-08T15:28:56;31.80;99.90
20284;DHT22;10301;50.832;4.080;2023-09-08T15:31:21;31.80;1.00
20284;DHT22;10301;50.832;4.080;2023-09-08T15:33:47;31.70;1.00
20284;DHT22;10301;50.832;4.080;2023-09-08T15:36:13;31.80;1.00
20284;DHT22;10301;50.832;4.080;2023-09-08T15:38:38;31.60;1.00
20284;DHT22;10301;50.832;4.080;2023-09-08T15:43:37;31.60;1.00